Terminal Aerodrome Forecast
Issued by NWS Bismarck, ND

Home | Current Version | Previous Version | Graphics & Text | Print | Product List | Glossary On
Versions: 1 2 3 4 5 6 7 8 9 10 11 12 13 14 15 16 17 18 19 20
000
FTUS43 KBIS 240640 AAA
TAFBIS
TAF AMD
KBIS 240640Z 2407/2506 27004KT P6SM VCSH SCT050 BKN070
      TEMPO 2407/2409 -SHRA OVC050
     FM241200 31012KT P6SM SCT040
     FM241600 32019G28KT P6SM BKN050
     FM250100 35014KT P6SM FEW060
     FM250300 36007KT P6SM FEW060 FEW200=

USA.gov is the U.S. government's official web portal to all federal, state and local government web resources and services.